LNR142 LFPG-LPPT
Flight info
| Callsign | LNR142 |
|---|---|
| Flight time | 2h 24m |
| Altitude | 35000 |
| Route | LGL UT176 TERPO/N0444F370 DCT ERIGA DCT FUJTI DCT BAKUP DCT BATAX DCT INBOM |
| Aircraft | A320/M-SDE3FGHIRWY/LB1 |
Departure
| Time | 2026-05-05 10:07 |
|---|---|
| Airport | Charles de Gaulle International Airport (LFPG) |
Arrival
| Time | 2026-05-05 12:31 |
|---|---|
| Airport | Lisbon Humberto Delgado Airport (LPPT) |
| Time | Latitude | Longitude | Altitude | Speed | Heading |
|---|---|---|---|---|---|
| 2026-05-05 09:37 | 49.00187 | 2.56058 | 354 ft | 0 kts | 11° |
| 2026-05-05 09:46 | 49.00187 | 2.56059 | 354 ft | 0 kts | 11° |
| 2026-05-05 09:46 | 49.00186 | 2.56058 | 354 ft | 0 kts | 11° |
| 2026-05-05 09:46 | 49.00183 | 2.56057 | 354 ft | 1 kts | 11° |
| 2026-05-05 09:47 | 49.00177 | 2.56056 | 354 ft | 1 kts | 11° |
| 2026-05-05 09:47 | 49.00166 | 2.56052 | 361 ft | 2 kts | 3° |
| 2026-05-05 09:47 | 49.00153 | 2.56052 | 354 ft | 2 kts | 354° |
| 2026-05-05 09:47 | 49.00140 | 2.56055 | 361 ft | 2 kts | 354° |
| 2026-05-05 09:48 | 49.00126 | 2.56057 | 357 ft | 2 kts | 354° |
| 2026-05-05 09:48 | 49.00113 | 2.56059 | 362 ft | 2 kts | 354° |
| 2026-05-05 09:48 | 49.00099 | 2.56061 | 360 ft | 2 kts | 352° |
| 2026-05-05 09:48 | 49.00091 | 2.56065 | 359 ft | 1 kts | 282° |
| 2026-05-05 09:49 | 49.00090 | 2.56068 | 359 ft | 0 kts | 276° |
| 2026-05-05 09:51 | 49.00090 | 2.56066 | 359 ft | 2 kts | 271° |
| 2026-05-05 09:51 | 49.00072 | 2.55775 | 357 ft | 42 kts | 264° |
| 2026-05-05 09:51 | 49.00061 | 2.55594 | 356 ft | 0 kts | 265° |
| 2026-05-05 09:53 | 49.00061 | 2.55584 | 358 ft | 3 kts | 267° |
| 2026-05-05 09:53 | 49.00078 | 2.55575 | 362 ft | 4 kts | 19° |
| 2026-05-05 09:53 | 49.00136 | 2.55612 | 357 ft | 12 kts | 6° |
| 2026-05-05 09:53 | 49.00199 | 2.55578 | 358 ft | 10 kts | 343° |
| 2026-05-05 09:54 | 49.00270 | 2.55549 | 354 ft | 11 kts | 346° |
| 2026-05-05 09:54 | 49.00352 | 2.55519 | 360 ft | 13 kts | 345° |
| 2026-05-05 09:54 | 49.00444 | 2.55475 | 358 ft | 15 kts | 341° |
| 2026-05-05 09:54 | 49.00537 | 2.55408 | 357 ft | 15 kts | 306° |
| 2026-05-05 09:55 | 49.00594 | 2.55273 | 354 ft | 15 kts | 327° |
| 2026-05-05 09:55 | 49.00694 | 2.55221 | 358 ft | 16 kts | 344° |
| 2026-05-05 09:55 | 49.00806 | 2.55174 | 355 ft | 17 kts | 344° |
| 2026-05-05 09:55 | 49.00926 | 2.55124 | 355 ft | 18 kts | 345° |
| 2026-05-05 09:56 | 49.01045 | 2.55069 | 360 ft | 18 kts | 343° |
| 2026-05-05 09:56 | 49.01162 | 2.55020 | 355 ft | 17 kts | 343° |
| 2026-05-05 09:56 | 49.01280 | 2.54968 | 359 ft | 19 kts | 344° |
| 2026-05-05 09:56 | 49.01409 | 2.54914 | 359 ft | 19 kts | 345° |
| 2026-05-05 09:57 | 49.01543 | 2.54895 | 359 ft | 20 kts | 353° |
| 2026-05-05 09:57 | 49.01640 | 2.54881 | 357 ft | 13 kts | 355° |
| 2026-05-05 09:57 | 49.01736 | 2.54871 | 355 ft | 15 kts | 356° |
| 2026-05-05 09:57 | 49.01831 | 2.54821 | 359 ft | 15 kts | 312° |
| 2026-05-05 09:58 | 49.01839 | 2.54661 | 354 ft | 15 kts | 266° |
| 2026-05-05 09:58 | 49.01832 | 2.54524 | 355 ft | 12 kts | 265° |
| 2026-05-05 09:58 | 49.01826 | 2.54411 | 355 ft | 10 kts | 265° |
| 2026-05-05 09:58 | 49.01820 | 2.54298 | 354 ft | 10 kts | 265° |
| 2026-05-05 09:59 | 49.01814 | 2.54201 | 361 ft | 9 kts | 264° |
| 2026-05-05 09:59 | 49.01808 | 2.54112 | 356 ft | 12 kts | 265° |
| 2026-05-05 09:59 | 49.01797 | 2.53915 | 354 ft | 25 kts | 265° |
| 2026-05-05 09:59 | 49.01783 | 2.53645 | 354 ft | 26 kts | 265° |
| 2026-05-05 10:00 | 49.01767 | 2.53363 | 354 ft | 27 kts | 265° |
| 2026-05-05 10:00 | 49.01752 | 2.53067 | 357 ft | 28 kts | 265° |
| 2026-05-05 10:00 | 49.01737 | 2.52779 | 359 ft | 25 kts | 264° |
| 2026-05-05 10:00 | 49.01722 | 2.52510 | 354 ft | 26 kts | 265° |
| 2026-05-05 10:01 | 49.01708 | 2.52228 | 354 ft | 27 kts | 265° |
| 2026-05-05 10:01 | 49.01695 | 2.51995 | 354 ft | 17 kts | 265° |
| 2026-05-05 10:01 | 49.01686 | 2.51827 | 358 ft | 15 kts | 265° |
| 2026-05-05 10:01 | 49.01678 | 2.51678 | 360 ft | 13 kts | 265° |
| 2026-05-05 10:02 | 49.01671 | 2.51548 | 358 ft | 12 kts | 265° |
| 2026-05-05 10:02 | 49.01665 | 2.51434 | 354 ft | 10 kts | 265° |
| 2026-05-05 10:02 | 49.01660 | 2.51335 | 354 ft | 9 kts | 265° |
| 2026-05-05 10:02 | 49.01691 | 2.51281 | 354 ft | 7 kts | 347° |
| 2026-05-05 10:03 | 49.01744 | 2.51271 | 356 ft | 9 kts | 356° |
| 2026-05-05 10:03 | 49.01817 | 2.51264 | 355 ft | 12 kts | 356° |
| 2026-05-05 10:03 | 49.01897 | 2.51255 | 355 ft | 4 kts | 355° |
| 2026-05-05 10:03 | 49.01923 | 2.51251 | 355 ft | 5 kts | 355° |
| 2026-05-05 10:04 | 49.01937 | 2.51250 | 355 ft | 0 kts | 355° |
| 2026-05-05 10:05 | 49.01937 | 2.51249 | 355 ft | 0 kts | 355° |
| 2026-05-05 10:05 | 49.01974 | 2.51267 | 362 ft | 11 kts | 27° |
| 2026-05-05 10:05 | 49.02051 | 2.51381 | 359 ft | 18 kts | 53° |
| 2026-05-05 10:05 | 49.02073 | 2.51494 | 354 ft | 0 kts | 84° |
| 2026-05-05 10:06 | 49.02073 | 2.51500 | 354 ft | 7 kts | 84° |
| 2026-05-05 10:06 | 49.02100 | 2.51980 | 356 ft | 81 kts | 84° |
| 2026-05-05 10:06 | 49.02166 | 2.53152 | 358 ft | 137 kts | 85° |
| 2026-05-05 10:06 | 49.02234 | 2.54777 | 585 ft | 158 kts | 85° |
| 2026-05-05 10:07 | 49.02220 | 2.56400 | 1322 ft | 154 kts | 86° |
| 2026-05-05 10:07 | 49.02312 | 2.58028 | 1952 ft | 159 kts | 81° |
| 2026-05-05 10:07 | 49.02418 | 2.59851 | 2289 ft | 180 kts | 83° |
| 2026-05-05 10:07 | 49.02511 | 2.61848 | 2524 ft | 204 kts | 86° |
| 2026-05-05 10:08 | 49.02603 | 2.64162 | 2854 ft | 228 kts | 84° |
| 2026-05-05 10:08 | 49.02764 | 2.66647 | 3346 ft | 246 kts | 84° |
| 2026-05-05 10:08 | 49.02946 | 2.69259 | 4170 ft | 250 kts | 83° |
| 2026-05-05 10:08 | 49.03143 | 2.71922 | 5016 ft | 254 kts | 79° |
| 2026-05-05 10:09 | 49.03892 | 2.74342 | 5777 ft | 261 kts | 47° |
| 2026-05-05 10:09 | 49.05471 | 2.75699 | 6525 ft | 270 kts | 13° |
| 2026-05-05 10:09 | 49.07361 | 2.75442 | 7314 ft | 281 kts | 339° |
| 2026-05-05 10:09 | 49.08912 | 2.73598 | 8082 ft | 292 kts | 307° |
| 2026-05-05 10:10 | 49.09828 | 2.70813 | 8866 ft | 298 kts | 291° |
| 2026-05-05 10:10 | 49.10136 | 2.67669 | 9665 ft | 304 kts | 264° |
| 2026-05-05 10:10 | 49.09723 | 2.64497 | 10513 ft | 307 kts | 254° |
| 2026-05-05 10:10 | 49.09071 | 2.61374 | 11311 ft | 312 kts | 248° |
| 2026-05-05 10:11 | 49.08244 | 2.58214 | 11701 ft | 332 kts | 248° |
| 2026-05-05 10:11 | 49.07377 | 2.54846 | 12074 ft | 348 kts | 248° |
| 2026-05-05 10:11 | 49.06472 | 2.51374 | 12741 ft | 356 kts | 248° |
| 2026-05-05 10:11 | 49.05535 | 2.47862 | 13534 ft | 360 kts | 247° |
| 2026-05-05 10:12 | 49.04565 | 2.44312 | 14231 ft | 363 kts | 246° |
| 2026-05-05 10:12 | 49.03583 | 2.40774 | 14906 ft | 365 kts | 246° |
| 2026-05-05 10:12 | 49.02693 | 2.37139 | 15543 ft | 368 kts | 254° |
| 2026-05-05 10:12 | 49.02261 | 2.33275 | 16169 ft | 372 kts | 265° |
| 2026-05-05 10:13 | 49.02264 | 2.29318 | 16786 ft | 375 kts | 270° |
| 2026-05-05 10:13 | 49.02322 | 2.25328 | 17411 ft | 378 kts | 269° |
| 2026-05-05 10:13 | 49.02376 | 2.21323 | 18048 ft | 381 kts | 269° |
| 2026-05-05 10:13 | 49.02424 | 2.17260 | 18710 ft | 384 kts | 269° |
| 2026-05-05 10:14 | 49.02472 | 2.13184 | 19366 ft | 388 kts | 269° |
| 2026-05-05 10:14 | 49.02518 | 2.09040 | 19999 ft | 391 kts | 269° |
| 2026-05-05 10:14 | 49.02566 | 2.04897 | 20640 ft | 394 kts | 269° |
| 2026-05-05 10:14 | 49.02615 | 2.00694 | 21233 ft | 398 kts | 269° |
| 2026-05-05 10:15 | 49.02662 | 1.96486 | 21785 ft | 400 kts | 269° |
| 2026-05-05 10:15 | 49.02705 | 1.92221 | 22307 ft | 403 kts | 269° |
| 2026-05-05 10:15 | 49.02745 | 1.87952 | 22817 ft | 406 kts | 269° |
| 2026-05-05 10:15 | 49.02785 | 1.83628 | 23305 ft | 408 kts | 269° |
| 2026-05-05 10:16 | 49.02824 | 1.79291 | 23738 ft | 411 kts | 269° |
| 2026-05-05 10:16 | 49.02862 | 1.74932 | 24160 ft | 414 kts | 269° |
| 2026-05-05 10:16 | 49.02898 | 1.70517 | 24551 ft | 417 kts | 269° |
| 2026-05-05 10:16 | 49.02931 | 1.66093 | 24929 ft | 420 kts | 269° |
| 2026-05-05 10:17 | 49.02962 | 1.61636 | 25328 ft | 422 kts | 269° |
| 2026-05-05 10:17 | 49.02990 | 1.57163 | 25719 ft | 424 kts | 269° |
| 2026-05-05 10:17 | 49.03015 | 1.52706 | 26093 ft | 426 kts | 269° |
| 2026-05-05 10:17 | 49.03039 | 1.48138 | 26454 ft | 428 kts | 269° |
| 2026-05-05 10:18 | 49.03068 | 1.43591 | 26777 ft | 430 kts | 269° |
| 2026-05-05 10:18 | 49.03098 | 1.39069 | 27112 ft | 433 kts | 269° |
| 2026-05-05 10:18 | 49.03124 | 1.34463 | 27465 ft | 436 kts | 269° |
| 2026-05-05 10:18 | 49.03146 | 1.29840 | 27811 ft | 438 kts | 268° |
| 2026-05-05 10:19 | 49.02992 | 1.25154 | 28103 ft | 438 kts | 259° |
| 2026-05-05 10:19 | 49.02337 | 1.20669 | 28400 ft | 439 kts | 249° |
| 2026-05-05 10:19 | 49.01185 | 1.16389 | 28753 ft | 438 kts | 240° |
| 2026-05-05 10:19 | 48.99766 | 1.12287 | 29086 ft | 439 kts | 239° |
| 2026-05-05 10:20 | 48.98342 | 1.08160 | 29400 ft | 441 kts | 239° |
| 2026-05-05 10:20 | 48.96915 | 1.04009 | 29704 ft | 443 kts | 239° |
| 2026-05-05 10:20 | 48.95483 | 0.99849 | 29981 ft | 446 kts | 239° |
| 2026-05-05 10:20 | 48.94037 | 0.95677 | 30239 ft | 446 kts | 239° |
| 2026-05-05 10:21 | 48.92580 | 0.91492 | 30495 ft | 447 kts | 239° |
| 2026-05-05 10:21 | 48.91120 | 0.87316 | 30769 ft | 448 kts | 239° |
| 2026-05-05 10:21 | 48.89662 | 0.83152 | 31065 ft | 447 kts | 238° |
| 2026-05-05 10:21 | 48.88204 | 0.78989 | 31429 ft | 444 kts | 238° |
| 2026-05-05 10:22 | 48.86757 | 0.74861 | 31802 ft | 442 kts | 238° |
| 2026-05-05 10:22 | 48.85312 | 0.70747 | 32146 ft | 439 kts | 238° |
| 2026-05-05 10:22 | 48.83881 | 0.66679 | 32495 ft | 437 kts | 238° |
| 2026-05-05 10:22 | 48.82444 | 0.62610 | 32848 ft | 435 kts | 238° |
| 2026-05-05 10:23 | 48.81018 | 0.58575 | 33217 ft | 433 kts | 238° |
| 2026-05-05 10:23 | 48.79584 | 0.54585 | 33600 ft | 430 kts | 234° |
| 2026-05-05 10:23 | 48.77879 | 0.50917 | 33983 ft | 423 kts | 226° |
| 2026-05-05 10:23 | 48.75973 | 0.47525 | 34238 ft | 422 kts | 226° |
| 2026-05-05 10:24 | 48.74072 | 0.44143 | 34464 ft | 422 kts | 226° |
| 2026-05-05 10:24 | 48.72163 | 0.40744 | 34659 ft | 423 kts | 226° |
| 2026-05-05 10:24 | 48.70252 | 0.37342 | 34822 ft | 425 kts | 226° |
| 2026-05-05 10:24 | 48.68985 | 0.35089 | 34869 ft | 423 kts | 226° |
| 2026-05-05 10:25 | 48.65207 | 0.28385 | 34891 ft | 417 kts | 226° |
| 2026-05-05 10:25 | 48.61430 | 0.21709 | 34885 ft | 418 kts | 226° |
| 2026-05-05 10:26 | 48.57657 | 0.15064 | 34887 ft | 418 kts | 226° |
| 2026-05-05 10:26 | 48.53891 | 0.08385 | 34882 ft | 418 kts | 226° |
| 2026-05-05 10:27 | 48.50128 | 0.01684 | 34883 ft | 418 kts | 226° |
| 2026-05-05 10:27 | 48.46362 | -0.04992 | 34897 ft | 419 kts | 226° |
| 2026-05-05 10:28 | 48.42580 | -0.11673 | 34892 ft | 418 kts | 226° |
| 2026-05-05 10:28 | 48.38800 | -0.18327 | 34873 ft | 419 kts | 225° |
| 2026-05-05 10:29 | 48.35001 | -0.24989 | 34869 ft | 419 kts | 225° |
| 2026-05-05 10:29 | 48.31193 | -0.31604 | 34874 ft | 420 kts | 225° |
| 2026-05-05 10:30 | 48.27355 | -0.38207 | 34880 ft | 419 kts | 225° |
| 2026-05-05 10:30 | 48.23511 | -0.44814 | 34881 ft | 419 kts | 225° |
| 2026-05-05 10:31 | 48.19678 | -0.51387 | 34870 ft | 419 kts | 225° |
| 2026-05-05 10:31 | 48.15833 | -0.57953 | 34873 ft | 420 kts | 225° |
| 2026-05-05 10:32 | 48.11969 | -0.64546 | 34872 ft | 420 kts | 225° |
| 2026-05-05 10:32 | 48.08113 | -0.71109 | 34874 ft | 421 kts | 225° |
| 2026-05-05 10:33 | 48.04243 | -0.77688 | 34881 ft | 421 kts | 225° |
| 2026-05-05 10:33 | 48.00389 | -0.84227 | 34882 ft | 422 kts | 225° |
| 2026-05-05 10:34 | 47.96481 | -0.90824 | 34884 ft | 422 kts | 224° |
| 2026-05-05 10:34 | 47.92608 | -0.97342 | 34867 ft | 423 kts | 224° |
| 2026-05-05 10:35 | 47.88704 | -1.03907 | 34868 ft | 424 kts | 224° |
| 2026-05-05 10:35 | 47.84790 | -1.10488 | 34869 ft | 424 kts | 224° |
| 2026-05-05 10:36 | 47.80876 | -1.17044 | 34871 ft | 424 kts | 224° |
| 2026-05-05 10:36 | 47.76945 | -1.23599 | 34872 ft | 425 kts | 225° |
| 2026-05-05 10:37 | 47.72998 | -1.30161 | 34863 ft | 427 kts | 225° |
| 2026-05-05 10:37 | 47.69038 | -1.36736 | 34866 ft | 428 kts | 225° |
| 2026-05-05 10:38 | 47.65067 | -1.43330 | 34876 ft | 429 kts | 225° |
| 2026-05-05 10:38 | 47.61090 | -1.49912 | 34878 ft | 429 kts | 224° |
| 2026-05-05 10:39 | 47.57100 | -1.56488 | 34879 ft | 430 kts | 225° |
| 2026-05-05 10:39 | 47.53090 | -1.63089 | 34882 ft | 431 kts | 225° |
| 2026-05-05 10:40 | 47.49083 | -1.69682 | 34900 ft | 432 kts | 225° |
| 2026-05-05 10:40 | 47.45056 | -1.76290 | 34896 ft | 433 kts | 225° |
| 2026-05-05 10:41 | 47.41019 | -1.82896 | 34899 ft | 433 kts | 225° |
| 2026-05-05 10:41 | 47.36976 | -1.89477 | 34913 ft | 433 kts | 225° |
| 2026-05-05 10:42 | 47.32402 | -1.95136 | 34904 ft | 428 kts | 209° |
| 2026-05-05 10:42 | 47.29880 | -1.97383 | 34906 ft | 428 kts | 209° |
| 2026-05-05 10:43 | 47.24784 | -2.01920 | 34907 ft | 429 kts | 209° |
| 2026-05-05 10:43 | 47.19687 | -2.06479 | 34910 ft | 429 kts | 209° |
| 2026-05-05 10:44 | 47.14592 | -2.11031 | 34911 ft | 429 kts | 209° |
| 2026-05-05 10:44 | 47.09483 | -2.15567 | 34912 ft | 430 kts | 210° |
| 2026-05-05 10:45 | 47.04366 | -2.20097 | 34907 ft | 430 kts | 209° |
| 2026-05-05 10:45 | 46.99249 | -2.24623 | 34910 ft | 430 kts | 209° |
| 2026-05-05 10:46 | 46.94118 | -2.29155 | 34920 ft | 430 kts | 210° |
| 2026-05-05 10:46 | 46.88997 | -2.33659 | 34922 ft | 430 kts | 209° |
| 2026-05-05 10:47 | 46.83857 | -2.38180 | 34923 ft | 431 kts | 210° |
| 2026-05-05 10:47 | 46.78726 | -2.42686 | 34923 ft | 430 kts | 209° |
| 2026-05-05 10:48 | 46.73592 | -2.47173 | 34930 ft | 431 kts | 210° |
| 2026-05-05 10:48 | 46.68449 | -2.51676 | 34921 ft | 431 kts | 210° |
| 2026-05-05 10:49 | 46.63311 | -2.56167 | 34924 ft | 431 kts | 210° |
| 2026-05-05 10:49 | 46.58150 | -2.60650 | 34929 ft | 431 kts | 209° |
| 2026-05-05 10:50 | 46.53002 | -2.65109 | 34943 ft | 431 kts | 210° |
| 2026-05-05 10:50 | 46.47851 | -2.69571 | 34941 ft | 431 kts | 210° |
| 2026-05-05 10:51 | 46.42694 | -2.74033 | 34945 ft | 431 kts | 210° |
| 2026-05-05 10:51 | 46.37541 | -2.78490 | 34944 ft | 431 kts | 209° |
| 2026-05-05 10:52 | 46.32385 | -2.82924 | 34949 ft | 432 kts | 209° |
| 2026-05-05 10:52 | 46.27226 | -2.87353 | 34946 ft | 432 kts | 209° |
| 2026-05-05 10:53 | 46.22089 | -2.91787 | 34953 ft | 432 kts | 209° |
| 2026-05-05 10:53 | 46.16943 | -2.96285 | 34951 ft | 432 kts | 210° |
| 2026-05-05 10:54 | 46.11801 | -3.00775 | 34964 ft | 432 kts | 209° |
| 2026-05-05 10:54 | 46.06650 | -3.05251 | 34967 ft | 432 kts | 210° |
| 2026-05-05 10:55 | 46.01494 | -3.09694 | 34967 ft | 432 kts | 210° |
| 2026-05-05 10:55 | 45.96344 | -3.14127 | 34971 ft | 431 kts | 210° |
| 2026-05-05 10:56 | 45.91199 | -3.18561 | 34970 ft | 431 kts | 210° |
| 2026-05-05 10:56 | 45.86052 | -3.22987 | 34962 ft | 432 kts | 210° |
| 2026-05-05 10:57 | 45.80896 | -3.27411 | 34961 ft | 432 kts | 210° |
| 2026-05-05 10:57 | 45.75750 | -3.31819 | 34970 ft | 431 kts | 210° |
| 2026-05-05 10:58 | 45.70591 | -3.36216 | 34969 ft | 431 kts | 210° |
| 2026-05-05 10:58 | 45.65439 | -3.40606 | 34973 ft | 430 kts | 210° |
| 2026-05-05 10:59 | 45.60294 | -3.44985 | 34977 ft | 430 kts | 210° |
| 2026-05-05 10:59 | 45.55150 | -3.49337 | 34974 ft | 430 kts | 210° |
| 2026-05-05 11:00 | 45.50016 | -3.53683 | 34970 ft | 430 kts | 210° |
| 2026-05-05 11:00 | 45.44872 | -3.58036 | 34974 ft | 431 kts | 210° |
| 2026-05-05 11:01 | 45.39717 | -3.62380 | 34972 ft | 431 kts | 210° |
| 2026-05-05 11:01 | 45.34546 | -3.66726 | 34967 ft | 431 kts | 210° |
| 2026-05-05 11:02 | 45.29404 | -3.71046 | 34970 ft | 431 kts | 211° |
| 2026-05-05 11:02 | 45.24239 | -3.75361 | 34972 ft | 432 kts | 211° |
| 2026-05-05 11:03 | 45.19059 | -3.79690 | 34972 ft | 432 kts | 211° |
| 2026-05-05 11:03 | 45.13876 | -3.84017 | 34975 ft | 433 kts | 211° |
| 2026-05-05 11:04 | 45.08704 | -3.88335 | 34968 ft | 433 kts | 211° |
| 2026-05-05 11:04 | 45.03503 | -3.92648 | 34965 ft | 434 kts | 211° |
| 2026-05-05 11:05 | 44.98275 | -3.96963 | 34972 ft | 435 kts | 210° |
| 2026-05-05 11:05 | 44.93049 | -4.01274 | 34968 ft | 435 kts | 211° |
| 2026-05-05 11:06 | 44.87821 | -4.05595 | 34977 ft | 436 kts | 211° |
| 2026-05-05 11:06 | 44.82593 | -4.09905 | 34974 ft | 436 kts | 211° |
| 2026-05-05 11:07 | 44.77353 | -4.14211 | 34976 ft | 436 kts | 211° |
| 2026-05-05 11:07 | 44.72122 | -4.18494 | 34983 ft | 436 kts | 211° |
| 2026-05-05 11:08 | 44.66873 | -4.22766 | 34988 ft | 436 kts | 211° |
| 2026-05-05 11:08 | 44.61624 | -4.27052 | 34993 ft | 436 kts | 211° |
| 2026-05-05 11:09 | 44.56386 | -4.31331 | 34997 ft | 436 kts | 211° |
| 2026-05-05 11:09 | 44.51141 | -4.35593 | 35004 ft | 436 kts | 211° |
| 2026-05-05 11:10 | 44.45888 | -4.39848 | 35005 ft | 436 kts | 211° |
| 2026-05-05 11:10 | 44.40640 | -4.44094 | 35010 ft | 436 kts | 211° |
| 2026-05-05 11:11 | 44.35439 | -4.48445 | 35006 ft | 435 kts | 212° |
| 2026-05-05 11:11 | 44.30296 | -4.52858 | 35004 ft | 434 kts | 212° |
| 2026-05-05 11:12 | 44.26013 | -4.56517 | 35005 ft | 434 kts | 212° |
| 2026-05-05 11:12 | 44.20011 | -4.61584 | 35003 ft | 434 kts | 212° |
| 2026-05-05 11:13 | 44.15673 | -4.65219 | 35001 ft | 435 kts | 212° |
| 2026-05-05 11:13 | 44.10493 | -4.69559 | 35001 ft | 434 kts | 213° |
| 2026-05-05 11:14 | 44.05318 | -4.73896 | 35013 ft | 434 kts | 212° |
| 2026-05-05 11:14 | 44.01803 | -4.76844 | 35011 ft | 434 kts | 212° |
| 2026-05-05 11:15 | 44.00110 | -4.78239 | 35015 ft | 434 kts | 212° |
| 2026-05-05 11:15 | 43.94962 | -4.82524 | 35017 ft | 434 kts | 212° |
| 2026-05-05 11:16 | 43.89765 | -4.86881 | 35013 ft | 433 kts | 213° |
| 2026-05-05 11:16 | 43.84606 | -4.91186 | 35025 ft | 433 kts | 213° |
| 2026-05-05 11:17 | 43.79476 | -4.95449 | 35026 ft | 432 kts | 212° |
| 2026-05-05 11:17 | 43.74314 | -4.99713 | 35016 ft | 433 kts | 212° |
| 2026-05-05 11:18 | 43.69432 | -5.03730 | 35012 ft | 433 kts | 213° |
| 2026-05-05 11:18 | 43.65391 | -5.07199 | 35005 ft | 434 kts | 213° |
| 2026-05-05 11:19 | 43.60209 | -5.11427 | 35018 ft | 434 kts | 213° |
| 2026-05-05 11:19 | 43.54994 | -5.15639 | 35027 ft | 433 kts | 213° |
| 2026-05-05 11:20 | 43.49808 | -5.19858 | 35021 ft | 432 kts | 213° |
| 2026-05-05 11:20 | 43.44641 | -5.24084 | 35019 ft | 432 kts | 213° |
| 2026-05-05 11:21 | 43.39481 | -5.28315 | 35028 ft | 431 kts | 213° |
| 2026-05-05 11:21 | 43.34317 | -5.32532 | 35020 ft | 432 kts | 213° |
| 2026-05-05 11:22 | 43.29152 | -5.36731 | 34993 ft | 432 kts | 214° |
| 2026-05-05 11:22 | 43.23975 | -5.40924 | 35004 ft | 432 kts | 214° |
| 2026-05-05 11:23 | 43.18847 | -5.45076 | 34995 ft | 431 kts | 213° |
| 2026-05-05 11:23 | 43.13677 | -5.49251 | 35005 ft | 431 kts | 213° |
| 2026-05-05 11:24 | 43.08501 | -5.53428 | 35004 ft | 431 kts | 214° |
| 2026-05-05 11:24 | 43.03334 | -5.57592 | 34999 ft | 431 kts | 214° |
| 2026-05-05 11:25 | 42.98168 | -5.61750 | 35000 ft | 431 kts | 214° |
| 2026-05-05 11:25 | 42.93002 | -5.65901 | 34997 ft | 431 kts | 214° |
| 2026-05-05 11:26 | 42.87816 | -5.70050 | 34994 ft | 432 kts | 214° |
| 2026-05-05 11:26 | 42.82631 | -5.74187 | 34991 ft | 431 kts | 214° |
| 2026-05-05 11:27 | 42.77459 | -5.78318 | 35002 ft | 431 kts | 214° |
| 2026-05-05 11:27 | 42.72278 | -5.82443 | 35011 ft | 431 kts | 214° |
| 2026-05-05 11:28 | 42.67089 | -5.86560 | 35016 ft | 431 kts | 214° |
| 2026-05-05 11:28 | 42.61944 | -5.90639 | 35011 ft | 431 kts | 214° |
| 2026-05-05 11:29 | 42.56757 | -5.94736 | 35007 ft | 431 kts | 214° |
| 2026-05-05 11:29 | 42.51577 | -5.98829 | 35005 ft | 431 kts | 214° |
| 2026-05-05 11:30 | 42.46405 | -6.02910 | 34995 ft | 431 kts | 214° |
| 2026-05-05 11:30 | 42.41225 | -6.06986 | 34988 ft | 430 kts | 214° |
| 2026-05-05 11:31 | 42.36037 | -6.11061 | 34989 ft | 431 kts | 214° |
| 2026-05-05 11:31 | 42.30836 | -6.15138 | 34990 ft | 432 kts | 214° |
| 2026-05-05 11:32 | 42.25637 | -6.19197 | 34987 ft | 432 kts | 214° |
| 2026-05-05 11:32 | 42.20428 | -6.23261 | 34982 ft | 432 kts | 214° |
| 2026-05-05 11:33 | 42.15227 | -6.27313 | 34997 ft | 432 kts | 214° |
| 2026-05-05 11:33 | 42.10025 | -6.31355 | 35002 ft | 431 kts | 214° |
| 2026-05-05 11:34 | 42.04830 | -6.35384 | 35003 ft | 431 kts | 214° |
| 2026-05-05 11:34 | 41.99623 | -6.39417 | 35001 ft | 431 kts | 214° |
| 2026-05-05 11:35 | 41.94468 | -6.43402 | 35010 ft | 431 kts | 214° |
| 2026-05-05 11:35 | 41.89282 | -6.47410 | 34994 ft | 430 kts | 214° |
| 2026-05-05 11:36 | 41.84085 | -6.51426 | 35000 ft | 431 kts | 214° |
| 2026-05-05 11:36 | 41.78847 | -6.55454 | 34992 ft | 431 kts | 214° |
| 2026-05-05 11:37 | 41.73669 | -6.59408 | 35020 ft | 431 kts | 214° |
| 2026-05-05 11:37 | 41.68608 | -6.63651 | 35035 ft | 426 kts | 223° |
| 2026-05-05 11:38 | 41.63935 | -6.68454 | 35045 ft | 426 kts | 222° |
| 2026-05-05 11:38 | 41.59221 | -6.73255 | 35043 ft | 426 kts | 222° |
| 2026-05-05 11:39 | 41.54513 | -6.78035 | 35046 ft | 426 kts | 222° |
| 2026-05-05 11:39 | 41.49795 | -6.82814 | 35053 ft | 425 kts | 222° |
| 2026-05-05 11:40 | 41.45082 | -6.87580 | 35042 ft | 425 kts | 223° |
| 2026-05-05 11:40 | 41.40371 | -6.92353 | 35042 ft | 425 kts | 223° |
| 2026-05-05 11:41 | 41.35655 | -6.97121 | 35054 ft | 425 kts | 223° |
| 2026-05-05 11:41 | 41.30946 | -7.01867 | 35041 ft | 425 kts | 223° |
| 2026-05-05 11:42 | 41.26251 | -7.06594 | 35062 ft | 424 kts | 223° |
| 2026-05-05 11:42 | 41.21531 | -7.11330 | 35067 ft | 424 kts | 223° |
| 2026-05-05 11:43 | 41.16827 | -7.16024 | 35066 ft | 423 kts | 223° |
| 2026-05-05 11:43 | 41.12119 | -7.20735 | 35051 ft | 423 kts | 223° |
| 2026-05-05 11:44 | 41.07441 | -7.25403 | 35044 ft | 422 kts | 224° |
| 2026-05-05 11:44 | 41.02740 | -7.30085 | 35071 ft | 422 kts | 224° |
| 2026-05-05 11:45 | 40.98079 | -7.34726 | 35071 ft | 422 kts | 224° |
| 2026-05-05 11:45 | 40.93388 | -7.39389 | 35080 ft | 421 kts | 224° |
| 2026-05-05 11:46 | 40.88697 | -7.44039 | 35043 ft | 421 kts | 224° |
| 2026-05-05 11:46 | 40.84024 | -7.48656 | 35077 ft | 419 kts | 224° |
| 2026-05-05 11:47 | 40.79361 | -7.53259 | 35086 ft | 418 kts | 224° |
| 2026-05-05 11:47 | 40.74713 | -7.57848 | 35090 ft | 417 kts | 224° |
| 2026-05-05 11:48 | 40.67740 | -7.64698 | 35077 ft | 416 kts | 225° |
| 2026-05-05 11:48 | 40.63112 | -7.69228 | 35071 ft | 413 kts | 225° |
| 2026-05-05 11:49 | 40.58514 | -7.73737 | 35093 ft | 411 kts | 225° |
| 2026-05-05 11:49 | 40.53934 | -7.78219 | 35095 ft | 410 kts | 225° |
| 2026-05-05 11:50 | 40.49355 | -7.82687 | 35092 ft | 409 kts | 225° |
| 2026-05-05 11:50 | 40.44827 | -7.87102 | 35095 ft | 408 kts | 225° |
| 2026-05-05 11:51 | 40.40233 | -7.91574 | 35095 ft | 408 kts | 225° |
| 2026-05-05 11:51 | 40.35708 | -7.95964 | 35094 ft | 408 kts | 225° |
| 2026-05-05 11:52 | 40.31116 | -8.00413 | 35092 ft | 408 kts | 225° |
| 2026-05-05 11:52 | 40.26591 | -8.04785 | 34930 ft | 404 kts | 225° |
| 2026-05-05 11:53 | 40.24331 | -8.06965 | 34496 ft | 400 kts | 225° |
| 2026-05-05 11:53 | 40.22118 | -8.09099 | 34065 ft | 395 kts | 225° |
| 2026-05-05 11:53 | 40.19930 | -8.11205 | 33268 ft | 388 kts | 226° |
| 2026-05-05 11:53 | 40.17753 | -8.13306 | 32653 ft | 386 kts | 225° |
| 2026-05-05 11:54 | 40.15612 | -8.15368 | 32208 ft | 381 kts | 226° |
| 2026-05-05 11:54 | 40.13482 | -8.17417 | 31743 ft | 378 kts | 226° |
| 2026-05-05 11:54 | 40.11374 | -8.19444 | 31270 ft | 376 kts | 226° |
| 2026-05-05 11:54 | 40.09266 | -8.21473 | 30787 ft | 374 kts | 226° |
| 2026-05-05 11:55 | 40.07185 | -8.23472 | 30333 ft | 373 kts | 226° |
| 2026-05-05 11:55 | 40.05097 | -8.25475 | 29823 ft | 371 kts | 226° |
| 2026-05-05 11:55 | 40.03021 | -8.27465 | 29286 ft | 369 kts | 225° |
| 2026-05-05 11:55 | 40.00812 | -8.29205 | 28780 ft | 377 kts | 214° |
| 2026-05-05 11:56 | 39.98304 | -8.30379 | 28243 ft | 388 kts | 202° |
| 2026-05-05 11:56 | 39.95614 | -8.30908 | 27900 ft | 397 kts | 196° |
| 2026-05-05 11:56 | 39.92871 | -8.31310 | 27592 ft | 395 kts | 196° |
| 2026-05-05 11:56 | 39.90142 | -8.31722 | 27331 ft | 393 kts | 196° |
| 2026-05-05 11:57 | 39.87444 | -8.32138 | 27068 ft | 391 kts | 196° |
| 2026-05-05 11:57 | 39.84737 | -8.32560 | 26816 ft | 390 kts | 196° |
| 2026-05-05 11:57 | 39.82039 | -8.32980 | 26558 ft | 390 kts | 196° |
| 2026-05-05 11:57 | 39.79353 | -8.33393 | 26298 ft | 390 kts | 196° |
| 2026-05-05 11:58 | 39.76658 | -8.33803 | 26055 ft | 388 kts | 196° |
| 2026-05-05 11:58 | 39.73987 | -8.34212 | 25843 ft | 385 kts | 197° |
| 2026-05-05 11:58 | 39.71416 | -8.34960 | 25574 ft | 371 kts | 207° |
| 2026-05-05 11:58 | 39.69121 | -8.36302 | 25307 ft | 355 kts | 219° |
| 2026-05-05 11:59 | 39.67146 | -8.38138 | 25013 ft | 343 kts | 230° |
| 2026-05-05 11:59 | 39.65528 | -8.40329 | 24724 ft | 333 kts | 239° |
| 2026-05-05 11:59 | 39.64134 | -8.42706 | 24450 ft | 331 kts | 240° |
| 2026-05-05 11:59 | 39.62753 | -8.45047 | 24171 ft | 330 kts | 240° |
| 2026-05-05 12:00 | 39.61338 | -8.47433 | 23887 ft | 329 kts | 240° |
| 2026-05-05 12:00 | 39.59966 | -8.49744 | 23617 ft | 328 kts | 240° |
| 2026-05-05 12:00 | 39.58480 | -8.52000 | 23321 ft | 333 kts | 232° |
| 2026-05-05 12:00 | 39.56623 | -8.53862 | 23035 ft | 343 kts | 220° |
| 2026-05-05 12:01 | 39.54566 | -8.55470 | 22746 ft | 344 kts | 219° |
| 2026-05-05 12:01 | 39.52522 | -8.57065 | 22450 ft | 343 kts | 220° |
| 2026-05-05 12:01 | 39.50483 | -8.58660 | 22186 ft | 343 kts | 220° |
| 2026-05-05 12:01 | 39.48445 | -8.60260 | 21877 ft | 342 kts | 219° |
| 2026-05-05 12:02 | 39.46415 | -8.61854 | 21605 ft | 340 kts | 219° |
| 2026-05-05 12:02 | 39.44408 | -8.63429 | 21333 ft | 339 kts | 219° |
| 2026-05-05 12:02 | 39.42393 | -8.65009 | 21067 ft | 338 kts | 219° |
| 2026-05-05 12:02 | 39.40369 | -8.66596 | 20786 ft | 338 kts | 219° |
| 2026-05-05 12:03 | 39.38361 | -8.68167 | 20507 ft | 338 kts | 219° |
| 2026-05-05 12:03 | 39.37028 | -8.69208 | 20324 ft | 337 kts | 219° |
| 2026-05-05 12:03 | 39.35020 | -8.70774 | 20047 ft | 337 kts | 219° |
| 2026-05-05 12:03 | 39.33011 | -8.72343 | 19752 ft | 337 kts | 218° |
| 2026-05-05 12:04 | 39.31076 | -8.74002 | 19482 ft | 331 kts | 226° |
| 2026-05-05 12:04 | 39.29361 | -8.75951 | 19217 ft | 329 kts | 229° |
| 2026-05-05 12:04 | 39.27645 | -8.77922 | 18946 ft | 329 kts | 229° |
| 2026-05-05 12:04 | 39.25937 | -8.79876 | 18688 ft | 329 kts | 229° |
| 2026-05-05 12:05 | 39.24233 | -8.81826 | 18395 ft | 328 kts | 228° |
| 2026-05-05 12:05 | 39.22540 | -8.83758 | 18117 ft | 326 kts | 227° |
| 2026-05-05 12:05 | 39.20833 | -8.85710 | 17845 ft | 330 kts | 228° |
| 2026-05-05 12:05 | 39.19093 | -8.87795 | 17619 ft | 342 kts | 228° |
| 2026-05-05 12:06 | 39.17350 | -8.89844 | 17346 ft | 336 kts | 228° |
| 2026-05-05 12:06 | 39.15645 | -8.91809 | 17078 ft | 330 kts | 227° |
| 2026-05-05 12:06 | 39.13903 | -8.93747 | 16823 ft | 324 kts | 226° |
| 2026-05-05 12:06 | 39.12211 | -8.95617 | 16573 ft | 320 kts | 227° |
| 2026-05-05 12:07 | 39.10524 | -8.97492 | 16298 ft | 318 kts | 227° |
| 2026-05-05 12:07 | 39.08860 | -8.99360 | 16038 ft | 317 kts | 227° |
| 2026-05-05 12:07 | 39.07203 | -9.01232 | 15796 ft | 316 kts | 227° |
| 2026-05-05 12:07 | 39.05559 | -9.03096 | 15544 ft | 316 kts | 227° |
| 2026-05-05 12:08 | 39.03922 | -9.04956 | 15303 ft | 314 kts | 227° |
| 2026-05-05 12:08 | 39.02297 | -9.06803 | 15057 ft | 314 kts | 227° |
| 2026-05-05 12:08 | 39.00658 | -9.08625 | 14812 ft | 314 kts | 223° |
| 2026-05-05 12:08 | 38.98735 | -9.10047 | 14542 ft | 320 kts | 207° |
| 2026-05-05 12:09 | 38.96683 | -9.11144 | 14309 ft | 319 kts | 207° |
| 2026-05-05 12:09 | 38.94640 | -9.12234 | 14077 ft | 318 kts | 207° |
| 2026-05-05 12:09 | 38.92601 | -9.13323 | 13838 ft | 317 kts | 207° |
| 2026-05-05 12:09 | 38.90565 | -9.14411 | 13571 ft | 316 kts | 207° |
| 2026-05-05 12:10 | 38.88531 | -9.15498 | 13303 ft | 315 kts | 207° |
| 2026-05-05 12:10 | 38.86521 | -9.16568 | 13042 ft | 314 kts | 207° |
| 2026-05-05 12:10 | 38.84516 | -9.17641 | 12777 ft | 313 kts | 207° |
| 2026-05-05 12:10 | 38.82506 | -9.18718 | 12510 ft | 312 kts | 207° |
| 2026-05-05 12:11 | 38.80499 | -9.19791 | 12263 ft | 311 kts | 206° |
| 2026-05-05 12:11 | 38.78503 | -9.20854 | 12017 ft | 310 kts | 206° |
| 2026-05-05 12:11 | 38.76513 | -9.21912 | 11767 ft | 309 kts | 206° |
| 2026-05-05 12:11 | 38.74535 | -9.22965 | 11512 ft | 307 kts | 206° |
| 2026-05-05 12:12 | 38.72675 | -9.24262 | 11288 ft | 301 kts | 221° |
| 2026-05-05 12:12 | 38.71193 | -9.26098 | 11041 ft | 295 kts | 236° |
| 2026-05-05 12:12 | 38.69955 | -9.28193 | 10792 ft | 294 kts | 237° |
| 2026-05-05 12:12 | 38.68728 | -9.30273 | 10561 ft | 293 kts | 236° |
| 2026-05-05 12:13 | 38.67617 | -9.32440 | 10324 ft | 289 kts | 248° |
| 2026-05-05 12:13 | 38.66779 | -9.34769 | 10079 ft | 288 kts | 249° |
| 2026-05-05 12:13 | 38.65949 | -9.37094 | 9824 ft | 287 kts | 249° |
| 2026-05-05 12:13 | 38.65121 | -9.39410 | 9569 ft | 287 kts | 249° |
| 2026-05-05 12:14 | 38.64291 | -9.41726 | 9304 ft | 286 kts | 249° |
| 2026-05-05 12:14 | 38.63463 | -9.44036 | 9042 ft | 285 kts | 249° |
| 2026-05-05 12:14 | 38.62637 | -9.46340 | 8779 ft | 284 kts | 249° |
| 2026-05-05 12:14 | 38.61810 | -9.48646 | 8524 ft | 284 kts | 248° |
| 2026-05-05 12:15 | 38.60990 | -9.50931 | 8267 ft | 283 kts | 248° |
| 2026-05-05 12:15 | 38.60011 | -9.53107 | 8018 ft | 286 kts | 230° |
| 2026-05-05 12:15 | 38.58350 | -9.54518 | 7769 ft | 290 kts | 198° |
| 2026-05-05 12:15 | 38.56376 | -9.54662 | 7584 ft | 291 kts | 169° |
| 2026-05-05 12:16 | 38.54368 | -9.54119 | 7453 ft | 292 kts | 168° |
| 2026-05-05 12:16 | 38.52403 | -9.53608 | 7331 ft | 292 kts | 168° |
| 2026-05-05 12:16 | 38.50421 | -9.53055 | 7204 ft | 291 kts | 161° |
| 2026-05-05 12:16 | 38.48598 | -9.51941 | 7082 ft | 290 kts | 144° |
| 2026-05-05 12:17 | 38.46925 | -9.50517 | 6969 ft | 290 kts | 144° |
| 2026-05-05 12:17 | 38.45251 | -9.49093 | 6830 ft | 289 kts | 144° |
| 2026-05-05 12:17 | 38.43573 | -9.47668 | 6723 ft | 290 kts | 144° |
| 2026-05-05 12:17 | 38.41949 | -9.46157 | 6590 ft | 287 kts | 134° |
| 2026-05-05 12:18 | 38.40700 | -9.44215 | 6483 ft | 282 kts | 121° |
| 2026-05-05 12:18 | 38.39613 | -9.42142 | 6354 ft | 282 kts | 121° |
| 2026-05-05 12:18 | 38.38522 | -9.40068 | 6217 ft | 281 kts | 121° |
| 2026-05-05 12:18 | 38.37433 | -9.38001 | 6085 ft | 281 kts | 121° |
| 2026-05-05 12:19 | 38.36436 | -9.35881 | 5956 ft | 277 kts | 110° |
| 2026-05-05 12:19 | 38.35901 | -9.33543 | 5829 ft | 274 kts | 97° |
| 2026-05-05 12:19 | 38.35535 | -9.31163 | 5707 ft | 273 kts | 98° |
| 2026-05-05 12:19 | 38.35162 | -9.28791 | 5574 ft | 273 kts | 98° |
| 2026-05-05 12:20 | 38.34794 | -9.26467 | 5447 ft | 272 kts | 98° |
| 2026-05-05 12:20 | 38.34477 | -9.24096 | 5316 ft | 269 kts | 89° |
| 2026-05-05 12:20 | 38.34618 | -9.21739 | 5183 ft | 265 kts | 75° |
| 2026-05-05 12:20 | 38.34979 | -9.19440 | 5057 ft | 265 kts | 75° |
| 2026-05-05 12:21 | 38.35601 | -9.17280 | 4939 ft | 257 kts | 53° |
| 2026-05-05 12:21 | 38.36876 | -9.15743 | 4804 ft | 252 kts | 27° |
| 2026-05-05 12:21 | 38.38537 | -9.15118 | 4676 ft | 249 kts | 2° |
| 2026-05-05 12:21 | 38.40186 | -9.15478 | 4542 ft | 236 kts | 338° |
| 2026-05-05 12:22 | 38.41532 | -9.16583 | 4403 ft | 226 kts | 324° |
| 2026-05-05 12:22 | 38.42767 | -9.17783 | 4220 ft | 221 kts | 324° |
| 2026-05-05 12:22 | 38.43991 | -9.18966 | 4111 ft | 221 kts | 325° |
| 2026-05-05 12:22 | 38.45212 | -9.20145 | 4029 ft | 220 kts | 324° |
| 2026-05-05 12:23 | 38.46436 | -9.21329 | 4031 ft | 221 kts | 325° |
| 2026-05-05 12:23 | 38.47654 | -9.22509 | 4034 ft | 220 kts | 325° |
| 2026-05-05 12:23 | 38.48858 | -9.23676 | 4036 ft | 220 kts | 324° |
| 2026-05-05 12:23 | 38.50081 | -9.24863 | 4036 ft | 221 kts | 325° |
| 2026-05-05 12:24 | 38.51358 | -9.25965 | 4032 ft | 224 kts | 336° |
| 2026-05-05 12:24 | 38.52864 | -9.26471 | 4028 ft | 218 kts | 357° |
| 2026-05-05 12:24 | 38.54309 | -9.26259 | 4025 ft | 202 kts | 16° |
| 2026-05-05 12:24 | 38.55549 | -9.25627 | 4048 ft | 185 kts | 21° |
| 2026-05-05 12:25 | 38.56668 | -9.25030 | 4026 ft | 160 kts | 20° |
| 2026-05-05 12:25 | 38.57621 | -9.24523 | 4013 ft | 139 kts | 20° |
| 2026-05-05 12:25 | 38.58525 | -9.24045 | 4038 ft | 148 kts | 21° |
| 2026-05-05 12:25 | 38.59513 | -9.23521 | 3935 ft | 156 kts | 21° |
| 2026-05-05 12:26 | 38.60514 | -9.22989 | 3768 ft | 155 kts | 20° |
| 2026-05-05 12:26 | 38.61476 | -9.22477 | 3567 ft | 146 kts | 21° |
| 2026-05-05 12:26 | 38.62387 | -9.21992 | 3390 ft | 137 kts | 21° |
| 2026-05-05 12:26 | 38.63247 | -9.21534 | 3214 ft | 135 kts | 19° |
| 2026-05-05 12:27 | 38.64109 | -9.21075 | 3029 ft | 134 kts | 19° |
| 2026-05-05 12:27 | 38.64972 | -9.20617 | 2855 ft | 134 kts | 17° |
| 2026-05-05 12:27 | 38.65830 | -9.20160 | 2673 ft | 133 kts | 18° |
| 2026-05-05 12:27 | 38.66684 | -9.19682 | 2466 ft | 135 kts | 22° |
| 2026-05-05 12:28 | 38.67503 | -9.19083 | 2276 ft | 135 kts | 24° |
| 2026-05-05 12:28 | 38.68333 | -9.18545 | 2141 ft | 132 kts | 13° |
| 2026-05-05 12:28 | 38.69231 | -9.18279 | 1935 ft | 131 kts | 8° |
| 2026-05-05 12:28 | 38.70102 | -9.17936 | 1730 ft | 134 kts | 17° |
| 2026-05-05 12:29 | 38.70964 | -9.17436 | 1565 ft | 137 kts | 21° |
| 2026-05-05 12:29 | 38.71799 | -9.16871 | 1442 ft | 136 kts | 20° |
| 2026-05-05 12:29 | 38.72656 | -9.16377 | 1213 ft | 134 kts | 20° |
| 2026-05-05 12:29 | 38.73526 | -9.15938 | 1021 ft | 136 kts | 17° |
| 2026-05-05 12:30 | 38.74403 | -9.15510 | 844 ft | 138 kts | 17° |
| 2026-05-05 12:30 | 38.75276 | -9.15032 | 700 ft | 135 kts | 14° |
| 2026-05-05 12:30 | 38.76177 | -9.14606 | 470 ft | 138 kts | 17° |
| 2026-05-05 12:30 | 38.77053 | -9.14136 | 365 ft | 131 kts | 16° |
| 2026-05-05 12:31 | 38.77597 | -9.13867 | 364 ft | 31 kts | 19° |
| 2026-05-05 12:31 | 38.77760 | -9.13793 | 362 ft | 22 kts | 21° |
| 2026-05-05 12:31 | 38.77876 | -9.13724 | 365 ft | 21 kts | 26° |
| 2026-05-05 12:31 | 38.78033 | -9.13642 | 365 ft | 22 kts | 23° |
| 2026-05-05 12:32 | 38.78084 | -9.13612 | 370 ft | 5 kts | 25° |
| 2026-05-05 12:32 | 38.78113 | -9.13595 | 370 ft | 6 kts | 25° |
| 2026-05-05 12:32 | 38.78175 | -9.13559 | 368 ft | 14 kts | 25° |
| 2026-05-05 12:32 | 38.78282 | -9.13478 | 365 ft | 20 kts | 41° |
| 2026-05-05 12:33 | 38.78360 | -9.13368 | 363 ft | 10 kts | 48° |
| 2026-05-05 12:33 | 38.78375 | -9.13300 | 363 ft | 5 kts | 93° |
| 2026-05-05 12:33 | 38.78350 | -9.13264 | 360 ft | 6 kts | 156° |
| 2026-05-05 12:33 | 38.78304 | -9.13274 | 363 ft | 7 kts | 201° |
| 2026-05-05 12:34 | 38.78260 | -9.13297 | 363 ft | 7 kts | 202° |
| 2026-05-05 12:34 | 38.78217 | -9.13319 | 362 ft | 7 kts | 202° |
| 2026-05-05 12:34 | 38.78174 | -9.13341 | 360 ft | 8 kts | 202° |
| 2026-05-05 12:34 | 38.78104 | -9.13379 | 361 ft | 15 kts | 203° |
| 2026-05-05 12:35 | 38.78004 | -9.13412 | 356 ft | 15 kts | 175° |
| 2026-05-05 12:35 | 38.77909 | -9.13386 | 351 ft | 12 kts | 168° |
| 2026-05-05 12:35 | 38.77820 | -9.13362 | 347 ft | 14 kts | 167° |
| 2026-05-05 12:35 | 38.77712 | -9.13331 | 338 ft | 18 kts | 167° |
| 2026-05-05 12:36 | 38.77594 | -9.13317 | 337 ft | 12 kts | 179° |
| 2026-05-05 12:36 | 38.77517 | -9.13302 | 334 ft | 11 kts | 168° |
| 2026-05-05 12:36 | 38.77445 | -9.13284 | 338 ft | 10 kts | 169° |
| 2026-05-05 12:36 | 38.77382 | -9.13267 | 338 ft | 9 kts | 168° |
| 2026-05-05 12:37 | 38.77324 | -9.13255 | 337 ft | 8 kts | 173° |
| 2026-05-05 12:37 | 38.77274 | -9.13245 | 337 ft | 5 kts | 169° |
| 2026-05-05 12:37 | 38.77247 | -9.13233 | 335 ft | 3 kts | 141° |
| 2026-05-05 12:37 | 38.77245 | -9.13203 | 336 ft | 4 kts | 89° |
| 2026-05-05 12:38 | 38.77250 | -9.13172 | 334 ft | 3 kts | 76° |
| 2026-05-05 12:38 | 38.77253 | -9.13158 | 335 ft | 0 kts | 75° |
| 2026-05-05 12:38 | 38.77254 | -9.13155 | 335 ft | 1 kts | 75° |
| 2026-05-05 12:38 | 38.77254 | -9.13150 | 336 ft | 0 kts | 75° |
| 2026-05-05 12:39 | 38.77255 | -9.13150 | 336 ft | 0 kts | 75° |
| 2026-05-05 12:47 | 38.77255 | -9.13149 | 337 ft | 0 kts | 77° |